Time,TemperatureF,DewpointF,PressureIn,WindDirection,WindDirectionDegrees,WindSpeedMPH,WindSpeedGustMPH,Humidity,HourlyPrecipIn,Conditions,Clouds,dailyrainin,SoftwareType,DateUTC
2013-01-17 00:00:00,31.1,21.4,29.91,NNW,338,2.5,2.5,67,0.00,,CLR,0.00,VWS V14.01,2013-01-17 06:00:00,
2013-01-17 00:06:00,31.5,22.1,29.91,North,0,1.1,2.7,68,0.00,,CLR,0.00,VWS V14.01,2013-01-17 06:06:00,
2013-01-17 00:12:00,31.6,22.3,29.91,NNW,338,2.9,3.8,68,0.00,,CLR,0.00,VWS V14.01,2013-01-17 06:12:00,
2013-01-17 00:17:00,31.6,22.3,29.91,NNE,22,2.5,2.5,68,0.00,,CLR,0.00,VWS V14.01,2013-01-17 06:17:00,
2013-01-17 00:22:00,32.0,22.6,29.91,NNW,338,1.6,3.1,68,0.00,,CLR,0.00,VWS V14.01,2013-01-17 06:22:00,
2013-01-17 00:27:00,32.2,22.8,29.91,NNW,338,2.5,3.4,68,0.00,,CLR,0.00,VWS V14.01,2013-01-17 06:27:00,
2013-01-17 00:33:00,32.2,22.5,29.91,NNW,338,1.3,2.5,67,0.00,,CLR,0.00,VWS V14.01,2013-01-17 06:33:00,
2013-01-17 00:38:00,32.4,22.6,29.91,NNW,338,3.4,3.4,67,0.00,,CLR,0.00,VWS V14.01,2013-01-17 06:38:00,
2013-01-17 00:43:00,32.5,22.8,29.94,NNE,22,0.9,2.0,67,0.00,,CLR,0.00,VWS V14.01,2013-01-17 06:43:00,
2013-01-17 00:48:00,32.5,22.5,29.94,NNW,338,2.5,3.1,66,0.00,,CLR,0.00,VWS V14.01,2013-01-17 06:48:00,
2013-01-17 00:53:00,32.5,22.5,29.94,NNW,338,1.3,2.7,66,0.00,,CLR,0.00,VWS V14.01,2013-01-17 06:53:00,
2013-01-17 00:58:00,32.5,22.1,29.94,NNW,338,0.0,1.3,65,0.00,,CLR,0.00,VWS V14.01,2013-01-17 06:58:00,
2013-01-17 01:03:00,32.4,21.9,29.94,NNW,338,0.0,2.0,65,0.00,,CLR,0.00,VWS V14.01,2013-01-17 07:03:00,
2013-01-17 01:08:00,32.2,22.1,29.94,NNW,338,2.5,2.5,66,0.00,,CLR,0.00,VWS V14.01,2013-01-17 07:08:00,
2013-01-17 01:13:00,31.8,21.8,29.94,NNW,338,2.9,2.9,66,0.00,,CLR,0.00,VWS V14.01,2013-01-17 07:13:00,
2013-01-17 01:18:00,32.0,21.9,29.94,NNW,338,1.1,1.6,66,0.00,,CLR,0.00,VWS V14.01,2013-01-17 07:18:00,
2013-01-17 01:23:00,32.0,21.9,29.94,NNW,338,1.3,1.6,66,0.00,,CLR,0.00,VWS V14.01,2013-01-17 07:23:00,
2013-01-17 01:28:00,31.6,21.6,29.94,NNW,338,1.6,1.6,66,0.00,,CLR,0.00,VWS V14.01,2013-01-17 07:28:00,
2013-01-17 01:33:00,31.6,21.6,29.94,North,0,1.6,2.0,66,0.00,,CLR,0.00,VWS V14.01,2013-01-17 07:33:00,
2013-01-17 01:38:00,31.8,22.1,29.94,NNE,22,1.3,1.6,67,0.00,,CLR,0.00,VWS V14.01,2013-01-17 07:38:00,
2013-01-17 01:44:00,31.8,22.1,29.94,NNE,22,0.0,0.0,67,0.00,,CLR,0.00,VWS V14.01,2013-01-17 07:44:00,
2013-01-17 01:49:00,31.3,21.6,29.94,NNE,22,0.0,0.0,67,0.00,,CLR,0.00,VWS V14.01,2013-01-17 07:49:00,
2013-01-17 01:54:00,30.9,20.9,29.94,NNE,22,0.9,1.3,66,0.00,,CLR,0.00,VWS V14.01,2013-01-17 07:54:00,
2013-01-17 01:59:00,30.6,20.9,29.94,NNE,22,1.3,1.6,67,0.00,,CLR,0.00,VWS V14.01,2013-01-17 07:59:00,
2013-01-17 02:04:00,30.4,21.1,29.94,NNE,22,0.0,0.0,68,0.00,,CLR,0.00,VWS V14.01,2013-01-17 08:04:00,
2013-01-17 02:09:00,30.2,20.9,29.94,NNE,22,0.0,0.0,68,0.00,,CLR,0.00,VWS V14.01,2013-01-17 08:09:00,
2013-01-17 02:15:00,30.2,20.9,29.94,NNE,22,0.0,1.1,68,0.00,,CLR,0.00,VWS V14.01,2013-01-17 08:15:00,
2013-01-17 02:20:00,30.2,21.3,29.94,North,0,0.9,2.2,69,0.00,,CLR,0.00,VWS V14.01,2013-01-17 08:20:00,
2013-01-17 02:25:00,30.0,21.4,29.97,North,0,1.3,1.3,70,0.00,,CLR,0.00,VWS V14.01,2013-01-17 08:25:00,
2013-01-17 02:30:00,29.8,21.3,29.97,North,0,0.0,1.1,70,0.00,,CLR,0.00,VWS V14.01,2013-01-17 08:30:00,
2013-01-17 02:35:00,29.7,21.1,29.97,North,0,0.0,0.0,70,0.00,,CLR,0.00,VWS V14.01,2013-01-17 08:35:00,
2013-01-17 02:41:00,29.8,21.3,29.97,NNW,338,1.1,1.1,70,0.00,,CLR,0.00,VWS V14.01,2013-01-17 08:41:00,
2013-01-17 02:46:00,30.0,21.8,29.97,NNW,338,0.0,0.0,71,0.00,,CLR,0.00,VWS V14.01,2013-01-17 08:46:00,
2013-01-17 02:51:00,29.8,21.3,29.97,NNW,338,0.9,1.3,70,0.00,,CLR,0.00,VWS V14.01,2013-01-17 08:51:00,
2013-01-17 02:56:00,29.5,21.2,29.94,NNW,338,1.3,1.3,71,0.00,,CLR,0.00,VWS V14.01,2013-01-17 08:56:00,
2013-01-17 03:01:00,29.3,21.1,29.94,NNW,338,1.3,2.0,71,0.00,,CLR,0.00,VWS V14.01,2013-01-17 09:01:00,
2013-01-17 03:06:00,29.3,21.4,29.94,North,0,1.6,2.0,72,0.00,,CLR,0.00,VWS V14.01,2013-01-17 09:06:00,
2013-01-17 03:11:00,29.3,21.4,29.97,North,0,0.0,0.0,72,0.00,,CLR,0.00,VWS V14.01,2013-01-17 09:11:00,
2013-01-17 03:17:00,29.3,21.4,29.97,North,0,1.1,1.3,72,0.00,,CLR,0.00,VWS V14.01,2013-01-17 09:17:00,
2013-01-17 03:22:00,29.1,21.2,29.97,North,0,1.1,1.6,72,0.00,,CLR,0.00,VWS V14.01,2013-01-17 09:22:00,
2013-01-17 03:27:00,29.1,21.6,29.97,NNE,22,1.3,1.6,73,0.00,,CLR,0.00,VWS V14.01,2013-01-17 09:27:00,
2013-01-17 03:32:00,29.5,21.9,29.97,NE,45,1.3,1.6,73,0.00,,CLR,0.00,VWS V14.01,2013-01-17 09:32:00,
2013-01-17 03:37:00,29.7,22.4,29.97,NNE,22,1.6,1.6,74,0.00,,CLR,0.00,VWS V14.01,2013-01-17 09:37:00,
2013-01-17 03:42:00,30.0,22.8,29.97,NNE,22,0.9,2.2,74,0.00,,CLR,0.00,VWS V14.01,2013-01-17 09:42:00,
2013-01-17 03:47:00,30.0,22.4,29.97,NNE,22,1.3,1.3,73,0.00,,CLR,0.00,VWS V14.01,2013-01-17 09:47:00,
2013-01-17 03:52:00,30.0,22.4,29.97,NNE,22,1.1,1.6,73,0.00,,CLR,0.00,VWS V14.01,2013-01-17 09:52:00,
2013-01-17 03:57:00,30.0,22.4,29.97,NNE,22,0.9,1.3,73,0.00,,CLR,0.00,VWS V14.01,2013-01-17 09:57:00,
2013-01-17 04:02:00,29.8,22.2,29.97,NNE,22,0.0,1.1,73,0.00,,CLR,0.00,VWS V14.01,2013-01-17 10:02:00,
2013-01-17 04:07:00,29.7,22.1,29.97,NNE,22,0.0,0.9,73,0.00,,CLR,0.00,VWS V14.01,2013-01-17 10:07:00,
2013-01-17 04:12:00,29.8,22.2,29.97,NNE,22,0.0,0.0,73,0.00,,CLR,0.00,VWS V14.01,2013-01-17 10:12:00,
2013-01-17 04:17:00,30.0,22.4,29.97,NNE,22,1.3,1.6,73,0.00,,CLR,0.00,VWS V14.01,2013-01-17 10:17:00,
2013-01-17 04:22:00,30.4,22.8,29.97,NNE,22,1.3,1.6,73,0.00,,CLR,0.00,VWS V14.01,2013-01-17 10:22:00,
2013-01-17 04:27:00,30.9,23.3,29.97,NNW,338,0.0,0.0,73,0.00,,CLR,0.00,VWS V14.01,2013-01-17 10:27:00,
2013-01-17 04:32:00,31.1,23.1,29.97,NNE,22,0.0,0.0,72,0.00,,CLR,0.00,VWS V14.01,2013-01-17 10:32:00,
2013-01-17 04:37:00,31.1,22.8,29.97,NNE,22,0.0,1.6,71,0.00,,CLR,0.00,VWS V14.01,2013-01-17 10:37:00,
2013-01-17 04:42:00,31.1,22.8,29.97,NNE,22,0.0,0.0,71,0.00,,CLR,0.00,VWS V14.01,2013-01-17 10:42:00,
2013-01-17 04:47:00,31.6,23.0,29.97,NNE,22,1.1,2.0,70,0.00,,CLR,0.00,VWS V14.01,2013-01-17 10:47:00,
2013-01-17 04:53:00,32.0,23.0,29.97,NNE,22,1.1,1.3,69,0.00,,CLR,0.00,VWS V14.01,2013-01-17 10:53:00,
2013-01-17 04:58:00,32.2,23.2,29.97,NNE,22,1.6,1.6,69,0.00,,CLR,0.00,VWS V14.01,2013-01-17 10:58:00,
2013-01-17 05:03:00,32.2,22.8,29.97,NE,45,1.3,1.3,68,0.00,,CLR,0.00,VWS V14.01,2013-01-17 11:03:00,
2013-01-17 05:08:00,32.5,22.8,29.97,NE,45,2.2,2.7,67,0.00,,CLR,0.00,VWS V14.01,2013-01-17 11:08:00,
2013-01-17 05:13:00,32.7,22.6,29.97,NE,45,2.7,2.7,66,0.00,,CLR,0.00,VWS V14.01,2013-01-17 11:13:00,
2013-01-17 05:18:00,33.1,22.6,29.97,NE,45,1.1,2.5,65,0.00,,CLR,0.00,VWS V14.01,2013-01-17 11:18:00,
2013-01-17 05:23:00,33.1,22.6,29.97,NNE,22,1.3,2.0,65,0.00,,CLR,0.00,VWS V14.01,2013-01-17 11:23:00,
2013-01-17 05:29:00,33.1,22.6,29.97,NNE,22,1.1,1.1,65,0.00,,CLR,0.00,VWS V14.01,2013-01-17 11:29:00,
2013-01-17 05:34:00,32.9,22.1,29.97,NNE,22,0.0,0.0,64,0.00,,CLR,0.00,VWS V14.01,2013-01-17 11:34:00,
2013-01-17 05:39:00,32.7,22.3,29.94,NNE,22,1.1,1.6,65,0.00,,CLR,0.00,VWS V14.01,2013-01-17 11:39:00,
2013-01-17 05:44:00,32.9,22.1,29.94,ENE,68,2.7,3.1,64,0.00,,CLR,0.00,VWS V14.01,2013-01-17 11:44:00,
2013-01-17 05:49:00,33.3,22.0,29.94,ENE,68,3.1,3.4,63,0.00,,CLR,0.00,VWS V14.01,2013-01-17 11:49:00,
2013-01-17 05:54:00,33.3,21.7,29.97,NE,45,2.7,2.9,62,0.00,,CLR,0.00,VWS V14.01,2013-01-17 11:54:00,
2013-01-17 06:01:00,33.4,21.8,29.97,ENE,68,3.1,3.1,62,0.00,,CLR,0.00,VWS V14.01,2013-01-17 12:01:00,
2013-01-17 06:06:00,33.4,21.5,29.97,NNE,22,2.5,2.5,61,0.00,,CLR,0.00,VWS V14.01,2013-01-17 12:06:00,
2013-01-17 06:12:00,33.6,21.6,29.94,NNE,22,1.6,2.9,61,0.00,,CLR,0.00,VWS V14.01,2013-01-17 12:12:00,
2013-01-17 06:18:00,33.6,21.6,29.94,ENE,68,2.2,2.9,61,0.00,,CLR,0.00,VWS V14.01,2013-01-17 12:18:00,
2013-01-17 06:23:00,33.8,21.4,29.94,NNE,22,2.7,2.7,60,0.00,,CLR,0.00,VWS V14.01,2013-01-17 12:23:00,
2013-01-17 06:29:00,33.8,21.4,29.97,NE,45,2.7,2.7,60,0.00,,CLR,0.00,VWS V14.01,2013-01-17 12:29:00,
2013-01-17 06:34:00,34.0,21.6,29.97,NE,45,1.3,1.3,60,0.00,,CLR,0.00,VWS V14.01,2013-01-17 12:34:00,
2013-01-17 06:40:00,33.8,21.4,29.97,ENE,68,1.6,1.6,60,0.00,,CLR,0.00,VWS V14.01,2013-01-17 12:40:00,
2013-01-17 06:46:00,33.3,21.3,29.97,NNE,22,2.0,2.0,61,0.00,,CLR,0.00,VWS V14.01,2013-01-17 12:46:00,
2013-01-17 06:51:00,33.3,21.7,29.97,NNE,22,2.0,2.2,62,0.00,,CLR,0.00,VWS V14.01,2013-01-17 12:51:00,
2013-01-17 06:57:00,33.3,21.7,29.97,NNE,22,1.3,2.0,62,0.00,,CLR,0.00,VWS V14.01,2013-01-17 12:57:00,
2013-01-17 07:02:00,33.1,21.9,29.97,NNE,22,2.0,2.2,63,0.00,,CLR,0.00,VWS V14.01,2013-01-17 13:02:00,
2013-01-17 07:07:00,33.1,21.9,29.97,NNE,22,2.0,2.0,63,0.00,,CLR,0.00,VWS V14.01,2013-01-17 13:07:00,
2013-01-17 07:12:00,33.3,22.0,29.97,NNE,22,1.6,2.7,63,0.00,,CLR,0.00,VWS V14.01,2013-01-17 13:12:00,
2013-01-17 07:17:00,33.3,21.7,29.97,NNE,22,1.3,2.0,62,0.00,,CLR,0.00,VWS V14.01,2013-01-17 13:17:00,
2013-01-17 07:22:00,33.3,21.7,29.97,NNE,22,1.3,2.2,62,0.00,,CLR,0.00,VWS V14.01,2013-01-17 13:22:00,
2013-01-17 07:28:00,33.3,21.7,29.97,NNE,22,2.0,2.0,62,0.00,,CLR,0.00,VWS V14.01,2013-01-17 13:28:00,
2013-01-17 07:33:00,33.4,21.8,30.00,NNE,22,1.3,2.0,62,0.00,,CLR,0.00,VWS V14.01,2013-01-17 13:33:00,
2013-01-17 07:38:00,33.4,21.8,30.00,NNE,22,2.5,2.7,62,0.00,,CLR,0.00,VWS V14.01,2013-01-17 13:38:00,
2013-01-17 07:43:00,33.6,22.0,30.00,NNE,22,2.0,2.2,62,0.00,,CLR,0.00,VWS V14.01,2013-01-17 13:43:00,
2013-01-17 07:48:00,33.8,22.2,30.00,NNE,22,1.3,2.2,62,0.00,,CLR,0.00,VWS V14.01,2013-01-17 13:48:00,
2013-01-17 07:54:00,34.2,22.1,30.03,ENE,68,1.6,2.0,61,0.00,,CLR,0.00,VWS V14.01,2013-01-17 13:54:00,
2013-01-17 07:59:00,34.3,22.3,30.03,ENE,68,2.2,2.5,61,0.00,,CLR,0.00,VWS V14.01,2013-01-17 13:59:00,
2013-01-17 08:04:00,34.5,22.5,30.03,NE,45,2.0,2.2,61,0.00,,CLR,0.00,VWS V14.01,2013-01-17 14:04:00,
2013-01-17 08:10:00,34.5,22.5,30.03,NE,45,2.0,2.7,61,0.00,,CLR,0.00,VWS V14.01,2013-01-17 14:10:00,
2013-01-17 08:15:00,34.7,22.2,30.03,ENE,68,2.5,2.7,60,0.00,,CLR,0.00,VWS V14.01,2013-01-17 14:15:00,
2013-01-17 08:21:00,35.1,22.2,30.03,NE,45,2.9,3.6,59,0.00,,CLR,0.00,VWS V14.01,2013-01-17 14:21:00,
2013-01-17 08:26:00,35.2,22.4,30.03,ENE,68,2.7,2.9,59,0.00,,CLR,0.00,VWS V14.01,2013-01-17 14:26:00,
2013-01-17 08:31:00,35.6,22.7,30.03,ENE,68,2.5,2.9,59,0.00,,CLR,0.00,VWS V14.01,2013-01-17 14:31:00,
2013-01-17 08:36:00,36.0,23.0,30.03,ENE,68,2.2,2.2,59,0.00,,CLR,0.00,VWS V14.01,2013-01-17 14:36:00,
2013-01-17 08:42:00,36.5,23.5,30.03,ENE,68,1.6,1.6,59,0.00,,CLR,0.00,VWS V14.01,2013-01-17 14:42:00,
2013-01-17 08:47:00,36.7,23.7,30.03,NE,45,2.5,2.7,59,0.00,,CLR,0.00,VWS V14.01,2013-01-17 14:47:00,
2013-01-17 08:53:00,37.2,23.8,30.03,NE,45,2.2,2.5,58,0.00,,CLR,0.00,VWS V14.01,2013-01-17 14:53:00,
2013-01-17 08:58:00,37.6,23.7,30.03,ENE,68,3.1,3.4,57,0.00,,CLR,0.00,VWS V14.01,2013-01-17 14:58:00,
2013-01-17 09:03:00,38.3,24.4,30.03,East,90,4.0,5.6,57,0.00,,CLR,0.00,VWS V14.01,2013-01-17 15:03:00,
2013-01-17 09:08:00,38.8,24.5,30.03,ENE,68,5.4,5.4,56,0.00,,CLR,0.00,VWS V14.01,2013-01-17 15:08:00,
2013-01-17 09:14:00,39.6,23.9,30.03,ENE,68,5.4,5.6,53,0.00,,CLR,0.00,VWS V14.01,2013-01-17 15:14:00,
2013-01-17 09:19:00,40.3,24.5,30.03,ENE,68,3.4,4.0,53,0.00,,CLR,0.00,VWS V14.01,2013-01-17 15:19:00,
2013-01-17 09:25:00,41.0,24.7,30.03,ENE,68,3.4,3.8,52,0.00,,CLR,0.00,VWS V14.01,2013-01-17 15:25:00,
2013-01-17 09:30:00,43.0,25.6,30.03,ENE,68,3.8,4.9,50,0.00,,CLR,0.00,VWS V14.01,2013-01-17 15:30:00,
2013-01-17 09:35:00,44.1,26.6,30.03,ESE,112,2.9,3.8,50,0.00,,CLR,0.00,VWS V14.01,2013-01-17 15:35:00,
2013-01-17 09:41:00,46.4,27.3,30.03,ESE,112,3.4,4.7,47,0.00,,CLR,0.00,VWS V14.01,2013-01-17 15:41:00,
2013-01-17 09:47:00,48.0,27.7,30.03,ESE,112,3.4,5.6,45,0.00,,CLR,0.00,VWS V14.01,2013-01-17 15:47:00,
2013-01-17 09:52:00,49.5,28.5,30.03,ENE,68,3.6,3.8,44,0.00,,CLR,0.00,VWS V14.01,2013-01-17 15:52:00,
2013-01-17 09:58:00,51.3,30.1,30.03,East,90,4.0,4.0,44,0.00,,CLR,0.00,VWS V14.01,2013-01-17 15:58:00,
2013-01-17 10:04:00,52.3,29.4,30.03,ESE,112,3.6,4.9,41,0.00,,CLR,0.00,VWS V14.01,2013-01-17 16:04:00,
2013-01-17 10:10:00,53.2,29.6,30.03,ESE,112,4.3,4.3,40,0.00,,CLR,0.00,VWS V14.01,2013-01-17 16:10:00,
2013-01-17 10:16:00,53.6,29.3,30.03,East,90,3.6,6.0,39,0.00,,CLR,0.00,VWS V14.01,2013-01-17 16:16:00,
2013-01-17 10:23:00,54.0,29.0,30.03,ENE,68,4.9,4.9,38,0.00,,CLR,0.00,VWS V14.01,2013-01-17 16:23:00,
2013-01-17 10:28:00,55.2,30.7,30.06,ENE,68,4.0,4.0,39,0.00,,CLR,0.00,VWS V14.01,2013-01-17 16:28:00,
2013-01-17 10:33:00,55.4,29.6,30.06,ENE,68,5.4,6.5,37,0.00,,CLR,0.00,VWS V14.01,2013-01-17 16:33:00,
2013-01-17 10:38:00,55.9,30.7,30.06,ENE,68,3.8,4.0,38,0.00,,CLR,0.00,VWS V14.01,2013-01-17 16:38:00,
2013-01-17 10:44:00,57.4,31.3,30.03,East,90,4.9,4.9,37,0.00,,CLR,0.00,VWS V14.01,2013-01-17 16:44:00,
2013-01-17 10:50:00,57.6,31.5,30.03,ESE,112,3.1,4.5,37,0.00,,CLR,0.00,VWS V14.01,2013-01-17 16:50:00,
2013-01-17 10:55:00,57.9,31.8,30.03,ESE,112,3.6,3.6,37,0.00,,CLR,0.00,VWS V14.01,2013-01-17 16:55:00,
2013-01-17 11:00:00,59.0,32.8,30.03,ENE,68,4.0,4.0,37,0.00,,CLR,0.00,VWS V14.01,2013-01-17 17:00:00,
2013-01-17 11:06:00,59.4,32.4,30.03,NNE,22,5.4,5.4,36,0.00,,CLR,0.00,VWS V14.01,2013-01-17 17:06:00,
2013-01-17 11:12:00,59.4,32.4,30.03,ESE,112,3.4,6.0,36,0.00,,CLR,0.00,VWS V14.01,2013-01-17 17:12:00,
2013-01-17 11:17:00,59.7,32.7,30.03,East,90,3.4,5.6,36,0.00,,CLR,0.00,VWS V14.01,2013-01-17 17:17:00,
2013-01-17 11:24:00,60.3,33.2,30.03,ENE,68,4.9,5.4,36,0.00,,CLR,0.00,VWS V14.01,2013-01-17 17:24:00,
2013-01-17 11:29:00,60.8,33.0,30.03,ENE,68,2.7,5.4,35,0.00,,CLR,0.00,VWS V14.01,2013-01-17 17:29:00,
2013-01-17 11:34:00,61.9,34.0,30.03,SSE,158,3.1,4.0,35,0.00,,CLR,0.00,VWS V14.01,2013-01-17 17:34:00,
2013-01-17 11:39:00,61.7,33.8,30.03,ESE,112,4.5,6.3,35,0.00,,CLR,0.00,VWS V14.01,2013-01-17 17:39:00,
2013-01-17 11:44:00,63.0,34.9,30.03,ENE,68,6.3,6.3,35,0.00,,CLR,0.00,VWS V14.01,2013-01-17 17:44:00,
2013-01-17 11:50:00,63.7,35.5,30.03,East,90,5.8,5.8,35,0.00,,CLR,0.00,VWS V14.01,2013-01-17 17:50:00,
2013-01-17 11:55:00,63.5,34.7,29.97,ENE,68,5.6,5.6,34,0.00,,CLR,0.00,VWS V14.01,2013-01-17 17:55:00,
2013-01-17 12:01:00,64.0,35.1,29.97,ESE,112,6.3,6.3,34,0.00,,CLR,0.00,VWS V14.01,2013-01-17 18:01:00,
2013-01-17 12:06:00,63.5,34.7,29.97,ENE,68,4.9,7.6,34,0.00,,CLR,0.00,VWS V14.01,2013-01-17 18:06:00,
2013-01-17 12:12:00,64.6,35.6,29.94,East,90,8.5,8.5,34,0.00,,CLR,0.00,VWS V14.01,2013-01-17 18:12:00,
2013-01-17 12:18:00,63.9,35.0,29.94,ESE,112,7.2,9.2,34,0.00,,CLR,0.00,VWS V14.01,2013-01-17 18:18:00,
2013-01-17 12:23:00,64.2,35.3,29.94,East,90,7.4,7.4,34,0.00,,CLR,0.00,VWS V14.01,2013-01-17 18:23:00,
2013-01-17 12:29:00,64.4,34.7,29.97,ENE,68,4.0,5.6,33,0.00,,CLR,0.00,VWS V14.01,2013-01-17 18:29:00,
2013-01-17 12:34:00,64.4,34.7,29.97,East,90,3.4,4.9,33,0.00,,CLR,0.00,VWS V14.01,2013-01-17 18:34:00,
2013-01-17 12:41:00,65.7,35.8,29.97,SE,135,2.5,5.6,33,0.00,,CLR,0.00,VWS V14.01,2013-01-17 18:41:00,
2013-01-17 12:46:00,66.2,36.3,29.97,South,180,4.9,6.5,33,0.00,,CLR,0.00,VWS V14.01,2013-01-17 18:46:00,
2013-01-17 12:51:00,65.8,36.0,29.97,ESE,112,3.8,6.0,33,0.00,,CLR,0.00,VWS V14.01,2013-01-17 18:51:00,
2013-01-17 12:57:00,66.6,36.6,29.94,ESE,112,2.5,4.3,33,0.00,,CLR,0.00,VWS V14.01,2013-01-17 18:57:00,
2013-01-17 13:03:00,66.0,36.1,29.94,East,90,8.1,8.1,33,0.00,,CLR,0.00,VWS V14.01,2013-01-17 19:03:00,
2013-01-17 13:08:00,66.4,36.4,29.94,East,90,3.8,5.6,33,0.00,,CLR,0.00,VWS V14.01,2013-01-17 19:08:00,
2013-01-17 13:13:00,65.7,35.8,29.94,ESE,112,6.3,6.5,33,0.00,,CLR,0.00,VWS V14.01,2013-01-17 19:13:00,
2013-01-17 13:19:00,66.0,36.1,29.94,ENE,68,4.9,4.9,33,0.00,,CLR,0.00,VWS V14.01,2013-01-17 19:19:00,
2013-01-17 13:24:00,66.2,36.3,29.91,ENE,68,7.4,7.4,33,0.00,,CLR,0.00,VWS V14.01,2013-01-17 19:24:00,
2013-01-17 13:30:00,65.5,35.6,29.91,East,90,6.0,9.2,33,0.00,,CLR,0.00,VWS V14.01,2013-01-17 19:30:00,
2013-01-17 13:35:00,65.1,35.3,29.91,East,90,8.7,8.7,33,0.00,,CLR,0.00,VWS V14.01,2013-01-17 19:35:00,
2013-01-17 13:40:00,65.7,35.8,29.91,ESE,112,6.3,6.3,33,0.00,,CLR,0.00,VWS V14.01,2013-01-17 19:40:00,
2013-01-17 13:46:00,66.6,36.6,29.91,East,90,4.9,4.9,33,0.00,,CLR,0.00,VWS V14.01,2013-01-17 19:46:00,
2013-01-17 13:51:00,66.9,36.9,29.91,ESE,112,4.0,7.4,33,0.00,,CLR,0.00,VWS V14.01,2013-01-17 19:51:00,
2013-01-17 13:57:00,67.1,37.1,29.91,ESE,112,3.6,5.6,33,0.00,,CLR,0.00,VWS V14.01,2013-01-17 19:57:00,
2013-01-17 14:03:00,67.3,36.4,29.91,ESE,112,8.5,8.5,32,0.00,,CLR,0.00,VWS V14.01,2013-01-17 20:03:00,
2013-01-17 14:09:00,66.6,35.0,29.91,ESE,112,7.6,7.6,31,0.00,,CLR,0.00,VWS V14.01,2013-01-17 20:09:00,
2013-01-17 14:15:00,66.0,34.5,29.91,ENE,68,5.8,7.8,31,0.00,,CLR,0.00,VWS V14.01,2013-01-17 20:15:00,
2013-01-17 14:20:00,66.2,34.7,29.91,ESE,112,3.8,9.8,31,0.00,,CLR,0.00,VWS V14.01,2013-01-17 20:20:00,
2013-01-17 14:25:00,65.8,34.4,29.91,East,90,6.0,6.0,31,0.00,,CLR,0.00,VWS V14.01,2013-01-17 20:25:00,
2013-01-17 14:30:00,65.8,34.4,29.91,ESE,112,5.6,5.6,31,0.00,,CLR,0.00,VWS V14.01,2013-01-17 20:30:00,
2013-01-17 14:36:00,66.2,35.5,29.91,NE,45,3.6,5.4,32,0.00,,CLR,0.00,VWS V14.01,2013-01-17 20:36:00,
2013-01-17 14:41:00,66.6,35.8,29.91,East,90,3.6,5.8,32,0.00,,CLR,0.00,VWS V14.01,2013-01-17 20:41:00,
2013-01-17 14:47:00,66.4,34.9,29.91,ESE,112,8.7,8.7,31,0.00,,CLR,0.00,VWS V14.01,2013-01-17 20:47:00,
2013-01-17 14:52:00,65.7,34.2,29.91,ENE,68,4.7,6.3,31,0.00,,CLR,0.00,VWS V14.01,2013-01-17 20:52:00,
2013-01-17 14:57:00,65.3,33.9,29.91,ESE,112,6.0,7.2,31,0.00,,CLR,0.00,VWS V14.01,2013-01-17 20:57:00,
2013-01-17 15:03:00,65.5,34.9,29.91,East,90,7.2,7.2,32,0.00,,CLR,0.00,VWS V14.01,2013-01-17 21:03:00,
2013-01-17 15:08:00,64.8,32.6,29.91,ESE,112,5.6,8.1,30,0.00,,CLR,0.00,VWS V14.01,2013-01-17 21:08:00,
2013-01-17 15:15:00,64.9,33.6,29.91,East,90,3.8,4.3,31,0.00,,CLR,0.00,VWS V14.01,2013-01-17 21:15:00,
2013-01-17 15:20:00,64.4,32.3,29.91,ESE,112,4.3,5.6,30,0.00,,CLR,0.00,VWS V14.01,2013-01-17 21:20:00,
2013-01-17 15:26:00,63.7,31.7,29.91,ESE,112,5.8,6.3,30,0.00,,CLR,0.00,VWS V14.01,2013-01-17 21:26:00,
2013-01-17 15:31:00,63.1,32.0,29.91,ESE,112,10.3,10.3,31,0.00,,CLR,0.00,VWS V14.01,2013-01-17 21:31:00,
2013-01-17 15:36:00,62.1,30.3,29.91,East,90,4.9,4.9,30,0.00,,CLR,0.00,VWS V14.01,2013-01-17 21:36:00,
2013-01-17 15:41:00,61.9,30.9,29.88,ENE,68,5.8,7.8,31,0.00,,CLR,0.00,VWS V14.01,2013-01-17 21:41:00,
2013-01-17 15:46:00,61.3,30.5,29.88,ESE,112,4.9,5.6,31,0.00,,CLR,0.00,VWS V14.01,2013-01-17 21:46:00,
2013-01-17 15:51:00,61.2,29.5,29.88,ESE,112,7.4,9.0,30,0.00,,CLR,0.00,VWS V14.01,2013-01-17 21:51:00,
2013-01-17 15:56:00,61.2,29.5,29.91,ESE,112,6.0,7.2,30,0.00,,CLR,0.00,VWS V14.01,2013-01-17 21:56:00,
2013-01-17 16:01:00,60.8,29.2,29.91,ESE,112,8.7,8.7,30,0.00,,CLR,0.00,VWS V14.01,2013-01-17 22:01:00,
2013-01-17 16:06:00,60.4,30.5,29.91,ESE,112,5.4,7.6,32,0.00,,CLR,0.00,VWS V14.01,2013-01-17 22:06:00,
2013-01-17 16:11:00,60.3,30.3,29.91,ESE,112,4.7,7.8,32,0.00,,CLR,0.00,VWS V14.01,2013-01-17 22:11:00,
2013-01-17 16:16:00,60.1,30.1,29.91,ESE,112,9.4,9.4,32,0.00,,CLR,0.00,VWS V14.01,2013-01-17 22:16:00,
2013-01-17 16:21:00,59.7,30.6,29.91,ESE,112,5.4,5.4,33,0.00,,CLR,0.00,VWS V14.01,2013-01-17 22:21:00,
2013-01-17 16:27:00,59.7,30.6,29.91,ESE,112,2.9,2.9,33,0.00,,CLR,0.00,VWS V14.01,2013-01-17 22:27:00,
2013-01-17 16:32:00,59.4,31.0,29.91,ESE,112,2.7,3.6,34,0.00,,CLR,0.00,VWS V14.01,2013-01-17 22:32:00,
2013-01-17 16:39:00,59.4,31.0,29.91,SSE,158,4.3,6.5,34,0.00,,CLR,0.00,VWS V14.01,2013-01-17 22:39:00,
2013-01-17 16:46:00,59.2,30.9,29.94,East,90,3.8,3.8,34,0.00,,CLR,0.00,VWS V14.01,2013-01-17 22:46:00,
2013-01-17 16:51:00,58.8,31.2,29.94,East,90,6.5,7.6,35,0.00,,CLR,0.00,VWS V14.01,2013-01-17 22:51:00,
2013-01-17 16:57:00,58.5,30.9,29.94,ESE,112,3.4,3.8,35,0.00,,CLR,0.00,VWS V14.01,2013-01-17 22:57:00,
2013-01-17 17:02:00,58.1,30.6,29.94,East,90,3.6,3.8,35,0.00,,CLR,0.00,VWS V14.01,2013-01-17 23:02:00,
2013-01-17 17:07:00,57.6,30.1,29.94,ENE,68,2.2,2.7,35,0.00,,CLR,0.00,VWS V14.01,2013-01-17 23:07:00,
2013-01-17 17:12:00,57.4,30.0,29.94,ESE,112,3.6,3.6,35,0.00,,CLR,0.00,VWS V14.01,2013-01-17 23:12:00,
2013-01-17 17:18:00,56.8,30.2,29.94,East,90,3.6,3.6,36,0.00,,CLR,0.00,VWS V14.01,2013-01-17 23:18:00,
2013-01-17 17:24:00,56.7,30.0,29.94,ESE,112,3.1,3.1,36,0.00,,CLR,0.00,VWS V14.01,2013-01-17 23:24:00,
2013-01-17 17:30:00,56.3,29.7,29.94,ESE,112,2.5,2.5,36,0.00,,CLR,0.00,VWS V14.01,2013-01-17 23:30:00,
2013-01-17 17:35:00,55.8,29.9,29.94,East,90,4.0,4.0,37,0.00,,CLR,0.00,VWS V14.01,2013-01-17 23:35:00,
2013-01-17 17:41:00,55.6,29.7,29.97,East,90,4.5,4.7,37,0.00,,CLR,0.00,VWS V14.01,2013-01-17 23:41:00,
2013-01-17 17:46:00,55.0,29.3,29.97,ESE,112,6.0,6.0,37,0.00,,CLR,0.00,VWS V14.01,2013-01-17 23:46:00,
2013-01-17 17:52:00,54.5,29.4,29.97,ESE,112,4.3,4.3,38,0.00,,CLR,0.00,VWS V14.01,2013-01-17 23:52:00,
2013-01-17 17:58:00,54.1,29.1,29.97,ESE,112,4.7,4.9,38,0.00,,CLR,0.00,VWS V14.01,2013-01-17 23:58:00,
2013-01-17 18:03:00,53.8,28.8,29.97,ESE,112,4.9,5.6,38,0.00,,CLR,0.00,VWS V14.01,2013-01-18 00:03:00,
2013-01-17 18:08:00,53.6,28.6,29.97,East,90,4.3,4.7,38,0.00,,CLR,0.00,VWS V14.01,2013-01-18 00:08:00,
2013-01-17 18:13:00,53.6,28.6,29.97,East,90,4.5,5.6,38,0.00,,CLR,0.00,VWS V14.01,2013-01-18 00:13:00,
2013-01-17 18:19:00,53.1,28.8,29.97,ESE,112,5.4,5.4,39,0.00,,CLR,0.00,VWS V14.01,2013-01-18 00:19:00,
2013-01-17 18:24:00,52.9,28.6,29.94,ESE,112,5.4,5.4,39,0.00,,CLR,0.00,VWS V14.01,2013-01-18 00:24:00,
2013-01-17 18:29:00,52.5,28.3,29.94,East,90,3.6,5.4,39,0.00,,CLR,0.00,VWS V14.01,2013-01-18 00:29:00,
2013-01-17 18:34:00,52.5,28.3,29.94,East,90,4.7,4.9,39,0.00,,CLR,0.00,VWS V14.01,2013-01-18 00:34:00,
2013-01-17 18:40:00,52.2,28.6,29.97,ESE,112,4.9,5.6,40,0.00,,CLR,0.00,VWS V14.01,2013-01-18 00:40:00,
2013-01-17 18:45:00,52.2,28.6,29.97,ESE,112,4.9,4.9,40,0.00,,CLR,0.00,VWS V14.01,2013-01-18 00:45:00,
2013-01-17 18:51:00,52.0,28.4,29.97,ESE,112,4.0,4.9,40,0.00,,CLR,0.00,VWS V14.01,2013-01-18 00:51:00,
2013-01-17 18:57:00,52.0,28.4,30.00,ESE,112,4.9,4.9,40,0.00,,CLR,0.00,VWS V14.01,2013-01-18 00:57:00,
2013-01-17 19:02:00,51.6,28.7,30.00,ESE,112,4.3,4.3,41,0.00,,CLR,0.00,VWS V14.01,2013-01-18 01:02:00,
2013-01-17 19:08:00,51.4,28.5,30.00,ESE,112,3.1,3.8,41,0.00,,CLR,0.00,VWS V14.01,2013-01-18 01:08:00,
2013-01-17 19:13:00,51.4,28.5,30.00,ENE,68,3.8,3.8,41,0.00,,CLR,0.00,VWS V14.01,2013-01-18 01:13:00,
2013-01-17 19:18:00,51.1,28.2,30.00,East,90,2.7,3.8,41,0.00,,CLR,0.00,VWS V14.01,2013-01-18 01:18:00,
2013-01-17 19:23:00,51.1,28.2,30.00,ESE,112,2.9,3.6,41,0.00,,CLR,0.00,VWS V14.01,2013-01-18 01:23:00,
2013-01-17 19:28:00,51.1,28.2,30.03,ESE,112,3.8,3.8,41,0.00,,CLR,0.00,VWS V14.01,2013-01-18 01:28:00,
2013-01-17 19:33:00,50.9,28.1,30.03,ESE,112,3.1,4.0,41,0.00,,CLR,0.00,VWS V14.01,2013-01-18 01:33:00,
2013-01-17 19:38:00,50.9,28.6,30.03,East,90,4.0,4.3,42,0.00,,CLR,0.00,VWS V14.01,2013-01-18 01:38:00,
2013-01-17 19:44:00,50.7,28.5,30.03,ESE,112,4.9,4.9,42,0.00,,CLR,0.00,VWS V14.01,2013-01-18 01:44:00,
2013-01-17 19:50:00,50.4,28.2,30.03,ESE,112,5.4,5.4,42,0.00,,CLR,0.00,VWS V14.01,2013-01-18 01:50:00,
2013-01-17 19:55:00,50.2,28.6,30.06,ESE,112,4.3,4.3,43,0.00,,CLR,0.00,VWS V14.01,2013-01-18 01:55:00,
2013-01-17 20:02:00,49.8,28.2,30.06,East,90,4.9,5.4,43,0.00,,CLR,0.00,VWS V14.01,2013-01-18 02:02:00,
2013-01-17 20:07:00,49.5,28.5,30.06,ENE,68,4.3,4.3,44,0.00,,CLR,0.00,VWS V14.01,2013-01-18 02:07:00,
2013-01-17 20:12:00,49.3,28.3,30.03,East,90,3.8,4.3,44,0.00,,CLR,0.00,VWS V14.01,2013-01-18 02:12:00,
2013-01-17 20:18:00,49.1,28.7,30.03,East,90,4.0,4.0,45,0.00,,CLR,0.00,VWS V14.01,2013-01-18 02:18:00,
2013-01-17 20:23:00,48.9,29.1,30.03,East,90,5.4,6.0,46,0.00,,CLR,0.00,VWS V14.01,2013-01-18 02:23:00,
2013-01-17 20:29:00,48.7,28.9,30.03,East,90,5.6,5.6,46,0.00,,CLR,0.00,VWS V14.01,2013-01-18 02:29:00,
2013-01-17 20:35:00,48.6,29.3,30.03,East,90,4.3,5.6,47,0.00,,CLR,0.00,VWS V14.01,2013-01-18 02:35:00,
2013-01-17 20:41:00,48.4,29.1,30.03,ESE,112,4.7,4.7,47,0.00,,CLR,0.00,VWS V14.01,2013-01-18 02:41:00,
2013-01-17 20:47:00,48.4,29.1,30.03,East,90,4.3,4.3,47,0.00,,CLR,0.00,VWS V14.01,2013-01-18 02:47:00,
2013-01-17 20:52:00,48.2,28.9,30.03,East,90,4.7,4.9,47,0.00,,CLR,0.00,VWS V14.01,2013-01-18 02:52:00,
2013-01-17 20:57:00,48.0,29.3,30.03,East,90,4.5,4.9,48,0.00,,CLR,0.00,VWS V14.01,2013-01-18 02:57:00,
2013-01-17 21:03:00,48.0,29.3,30.03,East,90,5.6,5.6,48,0.00,,CLR,0.00,VWS V14.01,2013-01-18 03:03:00,
2013-01-17 21:08:00,47.8,29.1,30.03,ENE,68,4.5,5.8,48,0.00,,CLR,0.00,VWS V14.01,2013-01-18 03:08:00,
2013-01-17 21:13:00,47.8,29.1,30.06,ENE,68,3.8,5.4,48,0.00,,CLR,0.00,VWS V14.01,2013-01-18 03:13:00,
2013-01-17 21:18:00,47.7,29.0,30.06,ESE,112,3.6,5.4,48,0.00,,CLR,0.00,VWS V14.01,2013-01-18 03:18:00,
2013-01-17 21:24:00,47.5,29.3,30.06,East,90,4.9,5.6,49,0.00,,CLR,0.00,VWS V14.01,2013-01-18 03:24:00,
2013-01-17 21:29:00,47.3,29.1,30.06,East,90,4.3,5.6,49,0.00,,CLR,0.00,VWS V14.01,2013-01-18 03:29:00,
2013-01-17 21:35:00,47.1,29.0,30.06,East,90,4.9,5.4,49,0.00,,CLR,0.00,VWS V14.01,2013-01-18 03:35:00,
2013-01-17 21:42:00,46.9,28.8,30.06,ENE,68,4.5,6.3,49,0.00,,CLR,0.00,VWS V14.01,2013-01-18 03:42:00,
2013-01-17 21:47:00,46.8,29.1,30.06,ENE,68,4.7,4.7,50,0.00,,CLR,0.00,VWS V14.01,2013-01-18 03:47:00,
2013-01-17 21:52:00,46.6,29.4,30.06,ESE,112,4.3,4.7,51,0.00,,CLR,0.00,VWS V14.01,2013-01-18 03:52:00,
2013-01-17 21:57:00,46.4,29.3,30.06,East,90,3.8,4.3,51,0.00,,CLR,0.00,VWS V14.01,2013-01-18 03:57:00,
2013-01-17 22:02:00,46.4,29.3,30.06,East,90,4.3,4.3,51,0.00,,CLR,0.00,VWS V14.01,2013-01-18 04:02:00,
2013-01-17 22:08:00,46.2,29.6,30.06,East,90,4.0,4.0,52,0.00,,CLR,0.00,VWS V14.01,2013-01-18 04:08:00,
2013-01-17 22:14:00,46.2,29.6,30.09,East,90,2.9,3.6,52,0.00,,CLR,0.00,VWS V14.01,2013-01-18 04:14:00,
2013-01-17 22:19:00,46.0,29.4,30.09,East,90,4.3,4.3,52,0.00,,CLR,0.00,VWS V14.01,2013-01-18 04:19:00,
2013-01-17 22:25:00,45.9,29.2,30.09,East,90,3.6,4.0,52,0.00,,CLR,0.00,VWS V14.01,2013-01-18 04:25:00,
2013-01-17 22:30:00,45.9,29.2,30.09,ENE,68,4.3,4.3,52,0.00,,CLR,0.00,VWS V14.01,2013-01-18 04:30:00,
2013-01-17 22:35:00,45.7,29.1,30.09,ENE,68,3.4,3.4,52,0.00,,CLR,0.00,VWS V14.01,2013-01-18 04:35:00,
2013-01-17 22:41:00,45.5,29.4,30.09,ENE,68,3.6,3.8,53,0.00,,CLR,0.00,VWS V14.01,2013-01-18 04:41:00,
2013-01-17 22:46:00,45.3,29.2,30.09,ENE,68,4.3,4.3,53,0.00,,CLR,0.00,VWS V14.01,2013-01-18 04:46:00,
2013-01-17 22:51:00,45.3,29.2,30.09,ENE,68,3.1,3.8,53,0.00,,CLR,0.00,VWS V14.01,2013-01-18 04:51:00,
2013-01-17 22:56:00,45.1,29.0,30.09,ENE,68,4.0,4.0,53,0.00,,CLR,0.00,VWS V14.01,2013-01-18 04:56:00,
2013-01-17 23:01:00,45.0,28.9,30.09,ESE,112,3.6,4.3,53,0.00,,CLR,0.00,VWS V14.01,2013-01-18 05:01:00,
2013-01-17 23:04:00,44.8,28.7,30.09,East,90,5.4,5.4,53,0.00,,CLR,0.00,VWS V14.01,2013-01-18 05:04:00,
2013-01-17 23:05:00,44.8,29.2,30.09,ESE,112,3.8,5.4,54,0.00,,CLR,0.00,VWS V14.01,2013-01-18 05:05:00,
2013-01-17 23:10:00,44.6,29.0,30.06,ESE,112,4.9,4.9,54,0.00,,CLR,0.00,VWS V14.01,2013-01-18 05:10:00,
2013-01-17 23:15:00,44.6,29.0,30.06,ESE,112,5.6,5.6,54,0.00,,CLR,0.00,VWS V14.01,2013-01-18 05:15:00,
2013-01-17 23:21:00,44.6,29.0,30.06,East,90,3.6,4.9,54,0.00,,CLR,0.00,VWS V14.01,2013-01-18 05:21:00,
2013-01-17 23:26:00,44.4,29.3,30.09,ESE,112,4.3,4.7,55,0.00,,CLR,0.00,VWS V14.01,2013-01-18 05:26:00,
2013-01-17 23:32:00,44.2,29.1,30.09,ESE,112,3.8,4.3,55,0.00,,CLR,0.00,VWS V14.01,2013-01-18 05:32:00,
2013-01-17 23:37:00,44.2,29.1,30.09,ESE,112,4.3,4.7,55,0.00,,CLR,0.00,VWS V14.01,2013-01-18 05:37:00,
2013-01-17 23:42:00,44.2,29.1,30.09,East,90,3.6,4.7,55,0.00,,CLR,0.00,VWS V14.01,2013-01-18 05:42:00,
2013-01-17 23:48:00,44.1,28.9,30.09,East,90,3.8,4.9,55,0.00,,CLR,0.00,VWS V14.01,2013-01-18 05:48:00,
2013-01-17 23:53:00,44.1,28.9,30.09,East,90,3.8,3.8,55,0.00,,CLR,0.00,VWS V14.01,2013-01-18 05:53:00,
2013-01-17 23:59:00,44.1,29.4,30.09,ESE,112,3.8,3.8,56,0.00,,CLR,0.00,VWS V14.01,2013-01-18 05:59:00,